createdAt,value
2022-09-04T00:00:03.341Z,100432.66
2022-09-04T00:02:55.511Z,100443.69
2022-09-04T00:05:29.397Z,100443.34
2022-09-04T00:08:16.177Z,100436.03
2022-09-04T00:10:52.258Z,100434.63
2022-09-04T00:13:24.074Z,100446.00
2022-09-04T00:15:58.107Z,100443.78
2022-09-04T00:18:35.021Z,100448.84
2022-09-04T00:21:12.811Z,100449.34
2022-09-04T00:23:45.607Z,100445.91
2022-09-04T00:26:23.601Z,100447.41
2022-09-04T00:28:56.922Z,100453.56
2022-09-04T00:31:32.079Z,100448.22
2022-09-04T00:34:13.946Z,100440.19
2022-09-04T00:36:50.265Z,100458.75
2022-09-04T00:39:23.827Z,100444.66
2022-09-04T00:42:10.505Z,100458.47
2022-09-04T00:45:01.921Z,100451.50
2022-09-04T00:47:58.712Z,100463.16
2022-09-04T00:51:01.718Z,100462.03
2022-09-04T00:53:47.730Z,100464.28
2022-09-04T00:56:41.978Z,100463.25
2022-09-04T00:59:23.259Z,100466.69
2022-09-04T01:01:56.036Z,100467.81
2022-09-04T01:04:41.100Z,100472.34
2022-09-04T01:07:32.014Z,100457.47
2022-09-04T01:10:26.026Z,100468.81
2022-09-04T01:13:01.047Z,100475.13
2022-09-04T01:15:38.898Z,100466.28
2022-09-04T01:18:12.628Z,100476.28
2022-09-04T01:20:53.790Z,100472.25
2022-09-04T01:23:43.718Z,100478.25
2022-09-04T01:26:21.179Z,100490.69
2022-09-04T01:29:02.608Z,100478.00
2022-09-04T01:31:38.815Z,100473.91
2022-09-04T01:34:23.953Z,100491.19
2022-09-04T01:37:01.064Z,100499.44
2022-09-04T01:39:32.984Z,100491.47
2022-09-04T01:42:10.383Z,100497.94
2022-09-04T01:44:38.179Z,100485.56
2022-09-04T01:47:16.381Z,100499.00
2022-09-04T01:49:50.647Z,100500.84
2022-09-04T01:52:39.975Z,100506.25
2022-09-04T01:55:19.902Z,100500.47
2022-09-04T01:58:00.015Z,100500.13
2022-09-04T02:00:33.962Z,100499.75
2022-09-04T02:03:11.447Z,100499.25
2022-09-04T02:06:00.449Z,100495.88
2022-09-04T02:08:43.157Z,100507.09
2022-09-04T02:11:17.121Z,100497.19
2022-09-04T02:14:06.613Z,100487.56
2022-09-04T02:16:46.533Z,100506.06
2022-09-04T02:19:25.515Z,100510.41
2022-09-04T02:22:03.166Z,100498.59
2022-09-04T02:24:39.605Z,100511.72
2022-09-04T02:27:11.849Z,100516.97
2022-09-04T02:29:47.349Z,100507.34
2022-09-04T02:32:20.183Z,100514.47
2022-09-04T02:34:56.258Z,100502.38
2022-09-04T02:37:30.062Z,100507.09
2022-09-04T02:40:04.892Z,100501.66
2022-09-04T02:42:44.431Z,100512.91
2022-09-04T02:45:24.025Z,100522.94
2022-09-04T02:48:00.489Z,100512.31
2022-09-04T02:50:40.249Z,100520.75
2022-09-04T02:53:20.450Z,100515.38
2022-09-04T02:56:07.953Z,100510.97
2022-09-04T02:58:49.856Z,100513.47
2022-09-04T03:01:25.845Z,100513.69
2022-09-04T03:04:01.359Z,100521.09
2022-09-04T03:06:45.928Z,100515.31
2022-09-04T03:09:18.840Z,100521.88
2022-09-04T03:11:52.992Z,100526.53
2022-09-04T03:14:27.807Z,100522.69
2022-09-04T03:17:02.642Z,100529.56
2022-09-04T03:19:36.916Z,100527.06
2022-09-04T03:22:12.014Z,100532.25
2022-09-04T03:24:59.942Z,100549.19
2022-09-04T03:27:31.548Z,100541.50
2022-09-04T03:30:04.482Z,100541.97
2022-09-04T03:32:40.028Z,100540.91
2022-09-04T03:35:16.026Z,100530.63
2022-09-04T03:37:59.078Z,100547.22
2022-09-04T03:40:39.224Z,100548.09
2022-09-04T03:43:20.190Z,100540.53
2022-09-04T03:45:57.456Z,100541.69
2022-09-04T03:48:35.445Z,100527.59
2022-09-04T03:51:16.289Z,100524.34
2022-09-04T03:53:46.755Z,100535.28
2022-09-04T03:56:33.070Z,100532.25
2022-09-04T03:59:07.469Z,100536.91
2022-09-04T04:01:46.714Z,100543.59
2022-09-04T04:04:44.053Z,100552.31
2022-09-04T04:07:24.580Z,100540.88
2022-09-04T04:10:03.824Z,100547.91
2022-09-04T04:12:52.320Z,100538.13
2022-09-04T04:15:33.341Z,100557.44
2022-09-04T04:18:18.692Z,100565.78
2022-09-04T04:21:00.638Z,100553.78
2022-09-04T04:24:01.954Z,100549.97
2022-09-04T04:26:54.045Z,100555.22
2022-09-04T04:29:43.194Z,100558.53
2022-09-04T04:32:25.465Z,100565.84
2022-09-04T04:35:16.581Z,100573.66
2022-09-04T04:38:02.177Z,100576.97
2022-09-04T04:40:52.587Z,100582.41
2022-09-04T04:43:26.698Z,100586.13
2022-09-04T04:45:59.964Z,100581.88
2022-09-04T04:49:06.117Z,100594.84
2022-09-04T04:51:50.211Z,100603.31
2022-09-04T04:54:35.627Z,100593.28
2022-09-04T04:57:13.059Z,100600.66
2022-09-04T04:59:49.252Z,100611.63
2022-09-04T05:02:27.589Z,100610.78
2022-09-04T05:05:03.318Z,100618.00
2022-09-04T05:07:39.226Z,100621.34
2022-09-04T05:10:19.308Z,100623.81
2022-09-04T05:13:00.224Z,100619.72
2022-09-04T05:15:43.825Z,100622.16
2022-09-04T05:18:30.406Z,100642.84
2022-09-04T05:21:09.923Z,100636.31
2022-09-04T05:23:43.192Z,100637.44
2022-09-04T05:26:23.174Z,100644.09
2022-09-04T05:28:59.444Z,100641.50
2022-09-04T05:31:38.299Z,100649.63
2022-09-04T05:34:13.914Z,100653.28
2022-09-04T05:36:51.506Z,100663.50
2022-09-04T05:39:29.585Z,100668.56
2022-09-04T05:42:16.517Z,100669.06
2022-09-04T05:44:58.320Z,100674.63
2022-09-04T05:47:38.812Z,100663.91
2022-09-04T05:50:22.359Z,100677.81
2022-09-04T05:53:14.472Z,100677.63
2022-09-04T05:56:02.549Z,100662.91
2022-09-04T05:58:55.156Z,100674.75
2022-09-04T06:01:40.510Z,100667.72
2022-09-04T06:04:35.055Z,100673.59
2022-09-04T06:07:13.015Z,100670.84
2022-09-04T06:09:55.471Z,100672.56
2022-09-04T06:12:45.585Z,100676.84
2022-09-04T06:15:22.418Z,100683.53
2022-09-04T06:18:20.098Z,100669.75
2022-09-04T06:21:13.036Z,100672.13
2022-09-04T06:24:06.921Z,100696.09
2022-09-04T06:26:50.090Z,100699.69
2022-09-04T06:29:37.358Z,100700.72
2022-09-04T06:32:28.914Z,100694.31
2022-09-04T06:35:47.043Z,100693.56
2022-09-04T06:38:31.842Z,100708.63
2022-09-04T06:41:14.488Z,100705.88
2022-09-04T06:43:50.866Z,100711.03
2022-09-04T06:46:28.322Z,100717.38
2022-09-04T06:49:07.350Z,100718.19
2022-09-04T06:51:57.295Z,100711.88
2022-09-04T06:54:41.514Z,100721.75
2022-09-04T06:57:30.075Z,100725.69
2022-09-04T07:00:06.034Z,100720.09
2022-09-04T07:02:52.657Z,100725.69
2022-09-04T07:05:30.498Z,100734.13
2022-09-04T07:08:09.188Z,100731.38
2022-09-04T07:10:43.473Z,100739.53
2022-09-04T07:13:47.982Z,100746.94
2022-09-04T07:16:42.843Z,100744.22
2022-09-04T07:19:25.919Z,100732.06
2022-09-04T07:22:13.173Z,100735.22
2022-09-04T07:24:56.985Z,100750.28
2022-09-04T07:27:40.049Z,100750.59
2022-09-04T07:30:10.264Z,100754.25
2022-09-04T07:32:43.242Z,100753.06
2022-09-04T07:35:17.553Z,100773.81
2022-09-04T07:37:56.033Z,100771.22
2022-09-04T07:40:30.790Z,100774.44
2022-09-04T07:43:07.457Z,100769.28
2022-09-04T07:45:38.243Z,100765.69
2022-09-04T07:48:19.866Z,100769.84
2022-09-04T07:51:04.570Z,100772.34
2022-09-04T07:53:59.096Z,100767.81
2022-09-04T07:56:36.184Z,100769.72
2022-09-04T07:59:40.307Z,100773.25
2022-09-04T08:02:37.827Z,100769.47
2022-09-04T08:05:22.952Z,100770.56
2022-09-04T08:08:23.432Z,100780.69
2022-09-04T08:11:07.235Z,100785.75
2022-09-04T08:14:13.080Z,100795.22
2022-09-04T08:16:49.126Z,100794.56
2022-09-04T08:19:41.561Z,100800.75
2022-09-04T08:22:14.267Z,100802.75
2022-09-04T08:27:50.444Z,100822.84
2022-09-04T08:30:21.585Z,100812.97
2022-09-04T08:33:24.884Z,100816.53
2022-09-04T08:36:01.267Z,100803.00
2022-09-04T08:38:55.575Z,100808.88
2022-09-04T08:41:59.790Z,100817.50
2022-09-04T08:45:11.537Z,100814.72
2022-09-04T08:48:12.700Z,100819.97
2022-09-04T08:51:03.996Z,100818.31
2022-09-04T08:54:09.709Z,100818.31
2022-09-04T08:56:47.288Z,100812.78
2022-09-04T08:59:57.090Z,100818.63
2022-09-04T09:03:00.483Z,100819.41
2022-09-04T09:06:07.338Z,100824.81
2022-09-04T09:09:10.814Z,100820.34
2022-09-04T09:11:59.005Z,100815.22
2022-09-04T09:15:06.971Z,100816.59
2022-09-04T09:17:39.559Z,100816.25
2022-09-04T09:20:25.900Z,100822.47
2022-09-04T09:23:26.050Z,100822.47
2022-09-04T09:26:06.210Z,100826.88
2022-09-04T09:29:13.407Z,100823.56
2022-09-04T09:32:22.737Z,100825.50
2022-09-04T09:35:33.387Z,100821.59
2022-09-04T09:38:34.733Z,100822.47
2022-09-04T09:41:44.129Z,100825.75
2022-09-04T09:44:43.347Z,100812.78
2022-09-04T09:47:40.194Z,100811.72
2022-09-04T09:50:33.611Z,100805.34
2022-09-04T09:53:47.114Z,100805.91
2022-09-04T09:57:03.059Z,100807.00
2022-09-04T10:00:05.186Z,100810.84
2022-09-04T10:03:13.548Z,100804.81
2022-09-04T10:06:01.709Z,100809.50
2022-09-04T10:08:49.823Z,100811.41
2022-09-04T10:11:59.327Z,100804.25
2022-09-04T10:15:11.328Z,100810.88
2022-09-04T10:18:18.671Z,100804.78
2022-09-04T10:21:10.409Z,100796.47
2022-09-04T10:24:11.352Z,100796.47
2022-09-04T10:27:04.279Z,100786.81
2022-09-04T10:29:42.284Z,100791.25
2022-09-04T10:32:55.053Z,100796.16
2022-09-04T10:35:27.780Z,100786.53
2022-09-04T10:38:22.882Z,100795.38
2022-09-04T10:41:20.402Z,100790.03
2022-09-04T10:44:25.398Z,100797.25
2022-09-04T10:47:04.005Z,100784.53
2022-09-04T10:49:47.196Z,100799.41
2022-09-04T10:52:53.907Z,100781.47
2022-09-04T10:55:36.533Z,100784.16
2022-09-04T10:58:29.172Z,100778.69
2022-09-04T11:01:22.345Z,100782.28
2022-09-04T11:04:13.951Z,100763.53
2022-09-04T11:07:12.300Z,100774.03
2022-09-04T11:09:59.914Z,100790.81
2022-09-04T11:12:45.108Z,100781.94
2022-09-04T11:15:26.696Z,100779.88
2022-09-04T11:18:22.261Z,100771.69
2022-09-04T11:21:27.169Z,100771.97
2022-09-04T11:24:26.578Z,100768.63
2022-09-04T11:27:31.527Z,100773.72
2022-09-04T11:30:05.683Z,100763.81
2022-09-04T11:33:00.234Z,100764.72
2022-09-04T11:36:21.517Z,100761.56
2022-09-04T11:39:26.125Z,100758.63
2022-09-04T11:42:20.298Z,100758.78
2022-09-04T11:45:16.659Z,100757.06
2022-09-04T11:48:03.613Z,100743.19
2022-09-04T11:50:56.424Z,100749.63
2022-09-04T11:53:46.178Z,100748.53
2022-09-04T11:56:42.439Z,100749.81
2022-09-04T11:59:43.960Z,100745.16
2022-09-04T12:02:39.066Z,100742.97
2022-09-04T12:05:20.150Z,100737.84
2022-09-04T12:08:04.908Z,100746.56
2022-09-04T12:10:53.706Z,100736.34
2022-09-04T12:13:52.599Z,100740.75
2022-09-04T12:16:42.330Z,100728.94
2022-09-04T12:19:35.538Z,100728.31
2022-09-04T12:22:38.626Z,100740.44
2022-09-04T12:25:37.452Z,100739.72
2022-09-04T12:28:38.063Z,100743.38
2022-09-04T12:31:22.994Z,100743.28
2022-09-04T12:34:36.846Z,100736.66
2022-09-04T12:37:37.455Z,100742.66
2022-09-04T12:40:28.324Z,100739.19
2022-09-04T12:43:07.172Z,100739.41
2022-09-04T12:45:44.365Z,100734.03
2022-09-04T12:48:22.356Z,100740.22
2022-09-04T12:50:58.607Z,100725.41
2022-09-04T12:53:49.254Z,100734.44
2022-09-04T12:56:30.184Z,100729.91
2022-09-04T12:59:19.154Z,100739.59
2022-09-04T13:02:01.822Z,100740.44
2022-09-04T13:04:38.717Z,100732.97
2022-09-04T13:07:26.246Z,100731.97
2022-09-04T13:10:04.156Z,100736.19
2022-09-04T13:12:37.952Z,100742.72
2022-09-04T13:15:24.343Z,100727.00
2022-09-04T13:18:00.065Z,100724.91
2022-09-04T13:20:40.275Z,100739.09
2022-09-04T13:23:26.926Z,100736.41
2022-09-04T13:26:16.702Z,100738.69
2022-09-04T13:28:56.798Z,100742.13
2022-09-04T13:31:43.304Z,100733.91
2022-09-04T13:34:17.125Z,100732.19
2022-09-04T13:36:55.038Z,100726.16
2022-09-04T13:39:54.434Z,100734.00
2022-09-04T13:43:00.208Z,100720.34
2022-09-04T13:45:34.893Z,100720.38
2022-09-04T13:48:07.880Z,100718.53
2022-09-04T13:50:38.598Z,100719.66
2022-09-04T13:53:16.575Z,100715.69
2022-09-04T13:55:50.291Z,100704.72
2022-09-04T13:58:21.840Z,100710.41
2022-09-04T14:00:53.530Z,100709.28
2022-09-04T14:03:36.775Z,100712.19
2022-09-04T14:06:08.554Z,100709.59
2022-09-04T14:08:37.602Z,100706.34
2022-09-04T14:11:39.373Z,100708.91
2022-09-04T14:14:35.178Z,100705.47
2022-09-04T14:17:03.126Z,100704.69
2022-09-04T14:19:44.067Z,100686.13
2022-09-04T14:22:33.527Z,100705.34
2022-09-04T14:25:11.733Z,100704.72
2022-09-04T14:28:12.563Z,100699.78
2022-09-04T14:30:47.986Z,100693.97
2022-09-04T14:33:34.629Z,100694.38
2022-09-04T14:36:16.091Z,100691.47
2022-09-04T14:38:57.199Z,100689.31
2022-09-04T14:41:41.791Z,100682.16
2022-09-04T14:44:27.129Z,100684.94
2022-09-04T14:47:07.352Z,100684.00
2022-09-04T14:49:47.396Z,100692.81
2022-09-04T14:52:18.417Z,100699.00
2022-09-04T14:54:52.380Z,100702.75
2022-09-04T14:57:26.109Z,100688.06
2022-09-04T15:00:04.813Z,100690.47
2022-09-04T15:02:38.191Z,100691.06
2022-09-04T15:05:16.019Z,100669.91
2022-09-04T15:07:55.033Z,100679.97
2022-09-04T15:10:28.509Z,100680.34
2022-09-04T15:13:32.365Z,100692.81
2022-09-04T15:16:19.409Z,100694.75
2022-09-04T15:18:56.936Z,100687.63
2022-09-04T15:21:32.928Z,100693.28
2022-09-04T15:24:13.557Z,100686.94
2022-09-04T15:26:47.005Z,100676.78
2022-09-04T15:29:22.966Z,100678.38
2022-09-04T15:32:00.749Z,100680.56
2022-09-04T15:34:30.858Z,100687.53
2022-09-04T15:37:11.710Z,100688.53
2022-09-04T15:39:48.488Z,100694.84
2022-09-04T15:42:36.192Z,100703.91
2022-09-04T15:45:10.978Z,100702.50
2022-09-04T15:47:56.935Z,100701.50
2022-09-04T15:50:28.723Z,100712.03
2022-09-04T15:53:10.053Z,100697.34
2022-09-04T15:56:08.769Z,100698.91
2022-09-04T15:58:47.451Z,100699.31
2022-09-04T16:01:23.217Z,100698.56
2022-09-04T16:04:12.724Z,100694.72
2022-09-04T16:06:48.040Z,100692.06
2022-09-04T16:09:24.360Z,100696.22
2022-09-04T16:12:03.738Z,100695.31
2022-09-04T16:14:36.878Z,100694.31
2022-09-04T16:17:17.051Z,100700.84
2022-09-04T16:19:55.443Z,100698.91
2022-09-04T16:22:40.041Z,100701.97
2022-09-04T16:25:11.878Z,100702.31
2022-09-04T16:27:49.217Z,100709.84
2022-09-04T16:30:33.896Z,100705.31
2022-09-04T16:33:03.441Z,100705.13
2022-09-04T16:35:38.226Z,100711.88
2022-09-04T16:38:12.426Z,100693.00
2022-09-04T16:40:48.781Z,100668.03
2022-09-04T16:43:40.377Z,100703.44
2022-09-04T16:46:16.478Z,100696.13
2022-09-04T16:48:53.988Z,100698.78
2022-09-04T16:51:40.363Z,100701.78
2022-09-04T16:54:18.295Z,100704.59
2022-09-04T16:56:53.322Z,100708.06
2022-09-04T16:59:43.563Z,100694.78
2022-09-04T17:02:29.507Z,100704.72
2022-09-04T17:05:17.887Z,100694.06
2022-09-04T17:07:52.484Z,100698.22
2022-09-04T17:10:37.003Z,100691.69
2022-09-04T17:13:13.121Z,100702.00
2022-09-04T17:15:53.487Z,100706.59
2022-09-04T17:18:24.488Z,100708.28
2022-09-04T17:25:45.130Z,100697.66
2022-09-04T17:29:09.209Z,100700.25
2022-09-04T17:29:13.980Z,100702.72
2022-09-04T17:29:50.772Z,100709.50
2022-09-04T17:36:01.257Z,100702.31
2022-09-04T17:40:46.473Z,100691.69
2022-09-04T17:40:48.848Z,100701.44
2022-09-04T17:41:31.075Z,100699.41
2022-09-04T17:44:29.240Z,100707.94
2022-09-04T17:47:11.730Z,100707.13
2022-09-04T17:49:45.863Z,100701.94
2022-09-04T17:52:23.818Z,100715.09
2022-09-04T17:54:52.441Z,100702.75
2022-09-04T17:57:28.874Z,100709.63
2022-09-04T18:00:04.858Z,100713.44
2022-09-04T18:02:42.158Z,100712.53
2022-09-04T18:05:19.238Z,100717.84
2022-09-04T18:08:09.713Z,100721.66
2022-09-04T18:10:51.822Z,100720.41
2022-09-04T18:13:37.862Z,100719.59
2022-09-04T18:16:17.578Z,100737.06
2022-09-04T18:18:49.302Z,100731.47
2022-09-04T18:21:23.470Z,100743.34
2022-09-04T18:23:58.618Z,100730.22
2022-09-04T18:26:39.902Z,100738.59
2022-09-04T18:30:42.851Z,100750.03
2022-09-04T18:37:19.634Z,100753.81
2022-09-04T18:37:25.853Z,100756.22
2022-09-04T18:38:37.973Z,100767.69
2022-09-04T18:44:27.166Z,100770.78
2022-09-04T18:50:20.770Z,100764.41
2022-09-04T18:50:32.089Z,100776.06
2022-09-04T18:50:35.292Z,100769.72
2022-09-04T18:53:06.332Z,100767.81
2022-09-04T18:55:43.601Z,100776.94
2022-09-04T18:58:41.729Z,100775.81
2022-09-04T19:01:20.363Z,100758.41
2022-09-04T19:03:58.759Z,100777.69
2022-09-04T19:06:35.058Z,100778.00
2022-09-04T19:09:12.907Z,100781.28
2022-09-04T19:11:47.389Z,100777.13
2022-09-04T19:14:18.995Z,100787.03
2022-09-04T19:16:53.078Z,100787.03
2022-09-04T19:19:26.051Z,100783.44
2022-09-04T19:22:02.889Z,100790.88
2022-09-04T19:24:35.893Z,100796.94
2022-09-04T19:27:27.561Z,100804.63
2022-09-04T19:30:18.750Z,100802.97
2022-09-04T19:33:13.618Z,100801.28
2022-09-04T19:35:48.451Z,100805.59
2022-09-04T19:45:45.705Z,100795.91
2022-09-04T19:46:08.502Z,100807.72
2022-09-04T19:46:13.996Z,100806.88
2022-09-04T19:47:27.362Z,100803.53
2022-09-04T19:53:21.234Z,100808.22
2022-09-04T19:53:33.327Z,100807.34
2022-09-04T19:55:57.410Z,100810.09
2022-09-04T19:58:34.730Z,100802.31
2022-09-04T20:01:05.245Z,100807.56
2022-09-04T20:03:38.939Z,100796.22
2022-09-04T20:06:23.308Z,100802.81
2022-09-04T20:09:00.030Z,100817.97
2022-09-04T20:11:36.046Z,100813.53
2022-09-04T20:14:15.448Z,100814.59
2022-09-04T20:16:56.507Z,100818.75
2022-09-04T20:19:28.856Z,100815.69
2022-09-04T20:22:03.598Z,100817.03
2022-09-04T20:24:39.728Z,100820.59
2022-09-04T20:27:16.015Z,100818.81
2022-09-04T20:29:54.852Z,100813.53
2022-09-04T20:32:28.975Z,100809.38
2022-09-04T20:35:13.192Z,100815.09
2022-09-04T20:37:53.466Z,100814.88
2022-09-04T20:40:32.944Z,100817.31
2022-09-04T20:43:18.385Z,100817.53
2022-09-04T20:51:13.772Z,100822.09
2022-09-04T20:52:49.484Z,100825.44
2022-09-04T20:52:58.419Z,100825.50
2022-09-04T20:55:05.337Z,100834.13
2022-09-04T21:02:05.155Z,100818.16
2022-09-04T21:03:17.782Z,100824.09
2022-09-04T21:03:53.530Z,100820.25
2022-09-04T21:06:32.857Z,100820.91
2022-09-04T21:09:12.105Z,100831.91
2022-09-04T21:11:46.022Z,100836.06
2022-09-04T21:14:20.933Z,100843.09
2022-09-04T21:17:33.858Z,100844.41
2022-09-04T21:20:35.398Z,100846.31
2022-09-04T21:23:39.560Z,100844.66
2022-09-04T21:26:19.872Z,100855.56
2022-09-04T21:29:11.257Z,100850.97
2022-09-04T21:32:08.754Z,100852.78
2022-09-04T21:34:55.063Z,100845.19
2022-09-04T21:37:29.741Z,100857.16
2022-09-04T21:40:25.781Z,100856.13
2022-09-04T21:43:35.733Z,100860.09
2022-09-04T21:46:28.811Z,100864.63
2022-09-04T21:49:26.446Z,100874.91
2022-09-04T21:52:21.255Z,100872.00
2022-09-04T21:57:45.834Z,100869.41
2022-09-04T22:02:29.393Z,100878.38
2022-09-04T22:02:38.658Z,100872.94
2022-09-04T22:04:30.430Z,100880.97
2022-09-04T22:08:36.364Z,100887.00
2022-09-04T22:13:33.047Z,100887.50
2022-09-04T22:13:42.610Z,100886.44
2022-09-04T22:16:05.881Z,100885.59
2022-09-04T22:18:48.748Z,100888.19
2022-09-04T22:21:26.896Z,100892.19
2022-09-04T22:24:14.069Z,100890.03
2022-09-04T22:27:16.953Z,100881.34
2022-09-04T22:29:54.719Z,100890.41
2022-09-04T22:32:47.001Z,100894.31
2022-09-04T22:35:48.462Z,100895.22
2022-09-04T22:38:37.200Z,100866.78
2022-09-04T22:41:29.968Z,100885.47
2022-09-04T22:44:06.266Z,100895.84
2022-09-04T22:46:56.794Z,100891.19
2022-09-04T22:49:49.196Z,100896.13
2022-09-04T22:52:44.078Z,100893.94
2022-09-04T22:56:03.836Z,100886.28
2022-09-04T22:58:35.579Z,100895.53
2022-09-04T23:01:26.245Z,100899.84
2022-09-04T23:04:16.118Z,100894.44
2022-09-04T23:11:32.091Z,100896.75
2022-09-04T23:14:00.282Z,100902.94
2022-09-04T23:14:06.682Z,100900.31
2022-09-04T23:17:13.386Z,100905.09
2022-09-04T23:24:50.417Z,100906.69
2022-09-04T23:26:57.258Z,100901.66
2022-09-04T23:26:59.367Z,100910.66
2022-09-04T23:29:47.945Z,100911.28
2022-09-04T23:32:39.131Z,100909.00
2022-09-04T23:35:16.729Z,100914.25
2022-09-04T23:38:04.934Z,100913.31
2022-09-04T23:40:41.974Z,100910.38
2022-09-04T23:43:53.062Z,100911.31
2022-09-04T23:46:45.988Z,100915.63
2022-09-04T23:49:39.727Z,100915.34
2022-09-04T23:52:22.029Z,100920.13
2022-09-04T23:55:09.965Z,100923.59
2022-09-04T23:57:45.790Z,100917.41
